createdAt,value
2019-03-21T00:01:24.110Z,74.32
2019-03-21T00:03:55.861Z,74.28
2019-03-21T00:06:24.403Z,74.46
2019-03-21T00:08:53.071Z,74.60
2019-03-21T00:11:56.395Z,74.56
2019-03-21T00:14:44.326Z,74.58
2019-03-21T00:17:24.812Z,74.21
2019-03-21T00:19:53.491Z,74.58
2019-03-21T00:22:22.370Z,75.06
2019-03-21T00:24:50.917Z,74.93
2019-03-21T00:27:25.714Z,74.83
2019-03-21T00:29:50.411Z,75.04
2019-03-21T00:32:20.434Z,75.13
2019-03-21T00:34:49.050Z,75.41
2019-03-21T00:37:17.868Z,75.01
2019-03-21T00:39:46.722Z,74.85
2019-03-21T00:42:19.823Z,74.64
2019-03-21T00:44:45.605Z,74.92
2019-03-21T00:47:14.422Z,74.87
2019-03-21T00:49:43.048Z,75.12
2019-03-21T00:52:11.669Z,75.10
2019-03-21T00:54:40.133Z,75.21
2019-03-21T00:57:08.679Z,75.24
2019-03-21T00:59:37.283Z,75.58
2019-03-21T01:02:05.979Z,75.61
2019-03-21T01:04:34.603Z,75.63
2019-03-21T01:07:03.169Z,75.60
2019-03-21T01:09:31.871Z,75.57
2019-03-21T01:12:00.422Z,75.85
2019-03-21T01:14:30.401Z,75.68
2019-03-21T01:16:59.041Z,75.86
2019-03-21T01:19:27.627Z,76.03
2019-03-21T01:21:58.324Z,75.96
2019-03-21T01:24:26.619Z,75.94
2019-03-21T01:26:59.374Z,76.02
2019-03-21T01:29:27.948Z,75.67
2019-03-21T01:31:56.568Z,75.94
2019-03-21T01:34:25.031Z,75.96
2019-03-21T01:36:53.645Z,75.94
2019-03-21T01:39:22.260Z,76.07
2019-03-21T01:41:51.586Z,76.27
2019-03-21T01:44:20.129Z,76.50
2019-03-21T01:46:48.791Z,76.28
2019-03-21T01:49:17.410Z,76.19
2019-03-21T01:51:46.065Z,76.09
2019-03-21T01:54:14.646Z,76.46
2019-03-21T01:56:43.197Z,76.33
2019-03-21T01:59:11.815Z,76.32
2019-03-21T02:01:40.565Z,76.50
2019-03-21T02:04:09.048Z,76.67
2019-03-21T02:06:37.607Z,76.25
2019-03-21T02:09:08.401Z,76.05
2019-03-21T02:11:38.762Z,75.86
2019-03-21T02:14:07.478Z,75.78
2019-03-21T02:16:36.027Z,75.86
2019-03-21T02:19:04.743Z,76.04
2019-03-21T02:21:33.377Z,76.32
2019-03-21T02:24:02.088Z,76.61
2019-03-21T02:26:30.701Z,76.73
2019-03-21T02:28:59.293Z,76.82
2019-03-21T02:31:28.128Z,76.86
2019-03-21T02:33:58.593Z,76.75
2019-03-21T02:36:27.143Z,76.74
2019-03-21T02:38:55.703Z,77.09
2019-03-21T02:41:25.799Z,77.26
2019-03-21T02:43:54.660Z,76.92
2019-03-21T02:46:23.296Z,76.92
2019-03-21T02:48:51.964Z,76.86
2019-03-21T02:51:20.632Z,76.87
2019-03-21T02:53:49.316Z,76.96
2019-03-21T02:56:23.966Z,77.26
2019-03-21T02:58:52.562Z,77.35
2019-03-21T03:01:21.190Z,77.41
2019-03-21T03:03:49.734Z,77.42
2019-03-21T03:06:18.391Z,77.15
2019-03-21T03:08:47.039Z,77.09
2019-03-21T03:11:20.636Z,77.05
2019-03-21T03:13:50.948Z,77.07
2019-03-21T03:16:21.393Z,77.00
2019-03-21T03:18:51.585Z,77.21
2019-03-21T03:21:20.353Z,77.32
2019-03-21T03:23:48.979Z,77.49
2019-03-21T03:26:17.549Z,77.28
2019-03-21T03:28:47.862Z,77.47
2019-03-21T03:31:16.531Z,77.55
2019-03-21T03:33:45.570Z,77.22
2019-03-21T03:36:16.058Z,77.18
2019-03-21T03:38:44.673Z,77.02
2019-03-21T03:41:16.264Z,77.09
2019-03-21T03:43:44.885Z,77.15
2019-03-21T03:46:13.425Z,77.10
2019-03-21T03:48:42.054Z,77.34
2019-03-21T03:51:10.704Z,77.35
2019-03-21T03:53:42.308Z,77.46
2019-03-21T03:56:09.792Z,77.52
2019-03-21T03:58:47.196Z,77.54
2019-03-21T04:01:15.729Z,77.94
2019-03-21T04:03:44.413Z,77.78
2019-03-21T04:06:13.029Z,77.38
2019-03-21T04:08:41.648Z,77.35
2019-03-21T04:11:10.337Z,77.64
2019-03-21T04:13:39.040Z,77.64
2019-03-21T04:16:07.651Z,77.68
2019-03-21T04:18:36.129Z,77.86
2019-03-21T04:21:13.428Z,78.08
2019-03-21T04:23:42.049Z,78.03
2019-03-21T04:26:32.115Z,78.01
2019-03-21T04:29:00.585Z,78.05
2019-03-21T04:31:29.225Z,78.14
2019-03-21T04:34:00.665Z,78.25
2019-03-21T04:36:29.364Z,78.11
2019-03-21T04:38:58.017Z,77.81
2019-03-21T04:41:26.559Z,77.93
2019-03-21T04:43:55.206Z,78.03
2019-03-21T04:46:26.645Z,77.94
2019-03-21T04:48:55.327Z,78.00
2019-03-21T04:51:24.013Z,78.01
2019-03-21T04:53:53.566Z,78.02
2019-03-21T04:56:22.348Z,78.08
2019-03-21T04:58:50.915Z,77.93
2019-03-21T05:01:19.548Z,78.11
2019-03-21T05:03:48.185Z,78.12
2019-03-21T05:06:16.796Z,78.28
2019-03-21T05:08:45.485Z,78.26
2019-03-21T05:11:14.309Z,78.17
2019-03-21T05:13:42.791Z,78.31
2019-03-21T05:16:14.918Z,78.25
2019-03-21T05:18:44.621Z,78.32
2019-03-21T05:21:16.139Z,78.16
2019-03-21T05:23:44.684Z,78.19
2019-03-21T05:26:13.486Z,78.09
2019-03-21T05:28:42.124Z,78.11
2019-03-21T05:31:17.052Z,77.96
2019-03-21T05:33:45.691Z,77.84
2019-03-21T05:36:14.235Z,77.90
2019-03-21T05:38:42.778Z,77.66
2019-03-21T05:41:11.393Z,77.53
2019-03-21T05:43:51.845Z,77.91
2019-03-21T05:46:26.491Z,77.70
2019-03-21T05:48:51.214Z,77.62
2019-03-21T05:51:19.760Z,77.40
2019-03-21T05:53:48.414Z,77.10
2019-03-21T05:56:16.955Z,77.06
2019-03-21T05:58:48.593Z,76.77
2019-03-21T06:01:17.131Z,76.71
2019-03-21T06:03:52.677Z,76.74
2019-03-21T06:06:45.140Z,76.57
2019-03-21T06:09:16.700Z,76.42
2019-03-21T06:11:48.500Z,75.93
2019-03-21T06:14:17.113Z,75.76
2019-03-21T06:16:45.732Z,75.57
2019-03-21T06:19:20.165Z,75.23
2019-03-21T06:21:57.659Z,74.92
2019-03-21T06:24:38.998Z,74.58
2019-03-21T06:27:19.373Z,74.06
2019-03-21T06:29:47.943Z,73.62
2019-03-21T06:32:16.487Z,73.13
2019-03-21T06:34:45.499Z,73.41
2019-03-21T06:37:14.127Z,73.04
2019-03-21T06:39:42.666Z,72.67
2019-03-21T06:42:11.283Z,72.39
2019-03-21T06:44:39.878Z,71.85
2019-03-21T06:47:08.509Z,71.78
2019-03-21T06:49:37.228Z,71.25
2019-03-21T06:52:05.860Z,70.91
2019-03-21T06:54:34.543Z,69.80
2019-03-21T06:57:03.096Z,69.36
2019-03-21T06:59:31.675Z,69.66
2019-03-21T07:02:00.213Z,69.04
2019-03-21T07:04:28.760Z,68.56
2019-03-21T07:07:07.548Z,68.43
2019-03-21T07:09:29.199Z,67.90
2019-03-21T07:11:59.433Z,67.91
2019-03-21T07:14:28.041Z,67.05
2019-03-21T07:17:00.742Z,66.43
2019-03-21T07:19:26.852Z,66.16
2019-03-21T07:21:55.510Z,65.37
2019-03-21T07:24:24.217Z,64.83
2019-03-21T07:26:52.842Z,64.21
2019-03-21T07:29:21.407Z,63.86
2019-03-21T07:31:50.083Z,63.36
2019-03-21T07:34:18.623Z,62.90
2019-03-21T07:36:47.261Z,62.35
2019-03-21T07:39:15.783Z,62.19
2019-03-21T07:41:44.420Z,61.27
2019-03-21T07:44:13.050Z,61.01
2019-03-21T07:46:41.630Z,60.99
2019-03-21T07:49:10.196Z,60.58
2019-03-21T07:51:38.802Z,60.14
2019-03-21T07:54:07.457Z,59.24
2019-03-21T07:56:35.923Z,58.47
2019-03-21T07:59:04.562Z,57.77
2019-03-21T08:01:33.210Z,57.10
2019-03-21T08:04:03.199Z,55.80
2019-03-21T08:06:31.947Z,56.37
2019-03-21T08:09:00.416Z,54.86
2019-03-21T08:11:29.031Z,54.08
2019-03-21T08:13:57.613Z,53.32
2019-03-21T08:16:26.234Z,53.47
2019-03-21T08:18:54.833Z,52.73
2019-03-21T08:21:23.463Z,51.34
2019-03-21T08:23:52.067Z,51.22
2019-03-21T08:26:20.687Z,50.36
2019-03-21T08:28:49.243Z,49.95
2019-03-21T08:31:17.800Z,48.85
2019-03-21T08:33:46.412Z,49.13
2019-03-21T08:36:15.062Z,48.62
2019-03-21T08:38:43.685Z,47.16
2019-03-21T08:41:12.388Z,47.92
2019-03-21T08:43:40.915Z,47.82
2019-03-21T08:46:09.574Z,46.87
2019-03-21T08:48:38.246Z,46.42
2019-03-21T08:51:08.529Z,46.42
2019-03-21T08:53:37.129Z,44.48
2019-03-21T08:56:05.751Z,44.89
2019-03-21T08:58:34.357Z,44.32
2019-03-21T09:01:03.022Z,44.19
2019-03-21T09:03:31.551Z,43.54
2019-03-21T09:06:00.165Z,43.42
2019-03-21T09:08:28.723Z,42.96
2019-03-21T09:10:57.201Z,42.59
2019-03-21T09:13:25.823Z,42.20
2019-03-21T09:15:54.448Z,41.47
2019-03-21T09:18:22.933Z,41.07
2019-03-21T09:20:51.569Z,40.25
2019-03-21T09:23:20.191Z,40.53
2019-03-21T09:25:51.218Z,39.81
2019-03-21T09:28:19.169Z,40.03
2019-03-21T09:30:50.410Z,39.45
2019-03-21T09:33:17.987Z,38.78
2019-03-21T09:35:46.597Z,39.06
2019-03-21T09:38:15.178Z,37.96
2019-03-21T09:40:43.809Z,36.98
2019-03-21T09:43:13.500Z,38.48
2019-03-21T09:45:42.135Z,38.84
2019-03-21T09:48:10.615Z,38.93
2019-03-21T09:50:39.159Z,38.72
2019-03-21T09:53:07.929Z,38.96
2019-03-21T09:55:36.404Z,38.82
2019-03-21T09:58:05.053Z,39.22
2019-03-21T10:00:36.124Z,39.78
2019-03-21T10:03:06.310Z,39.57
2019-03-21T10:05:35.236Z,40.00
2019-03-21T10:08:04.350Z,41.51
2019-03-21T10:10:35.165Z,43.64
2019-03-21T10:13:04.509Z,44.51
2019-03-21T10:15:33.933Z,44.46
2019-03-21T10:18:02.574Z,44.21
2019-03-21T10:20:31.182Z,44.83
2019-03-21T10:22:59.803Z,45.66
2019-03-21T10:25:28.344Z,45.13
2019-03-21T10:27:56.990Z,46.02
2019-03-21T10:30:36.373Z,46.29
2019-03-21T10:33:06.790Z,46.09
2019-03-21T10:35:35.407Z,46.84
2019-03-21T10:38:04.826Z,46.81
2019-03-21T10:40:33.492Z,47.25
2019-03-21T10:43:02.493Z,47.57
2019-03-21T10:45:31.065Z,47.84
2019-03-21T10:47:59.783Z,47.26
2019-03-21T10:50:33.523Z,45.83
2019-03-21T10:53:02.137Z,46.42
2019-03-21T10:55:30.732Z,46.44
2019-03-21T10:57:59.417Z,46.33
2019-03-21T11:00:28.185Z,45.79
2019-03-21T11:02:56.786Z,46.04
2019-03-21T11:05:25.530Z,46.69
2019-03-21T11:07:57.133Z,46.26
2019-03-21T11:10:25.821Z,46.56
2019-03-21T11:12:54.470Z,46.64
2019-03-21T11:15:23.107Z,46.34
2019-03-21T11:17:52.018Z,46.11
2019-03-21T11:20:44.665Z,45.97
2019-03-21T11:23:14.697Z,46.08
2019-03-21T11:25:43.330Z,45.46
2019-03-21T11:28:11.945Z,45.33
2019-03-21T11:30:43.924Z,45.39
2019-03-21T11:33:12.552Z,44.99
2019-03-21T11:35:41.165Z,45.17
2019-03-21T11:38:09.882Z,45.09
2019-03-21T11:40:41.590Z,44.36
2019-03-21T11:43:10.859Z,44.07
2019-03-21T11:45:39.383Z,43.98
2019-03-21T11:48:08.043Z,44.74
2019-03-21T11:50:36.605Z,45.36
2019-03-21T11:53:05.306Z,44.53
2019-03-21T11:55:33.950Z,45.01
2019-03-21T11:58:02.479Z,45.69
2019-03-21T12:00:43.190Z,45.80
2019-03-21T12:03:04.138Z,45.17
2019-03-21T12:05:31.842Z,45.70
2019-03-21T12:08:00.452Z,45.77
2019-03-21T12:10:29.007Z,45.49
2019-03-21T12:12:57.638Z,45.64
2019-03-21T12:15:26.261Z,46.20
2019-03-21T12:17:54.799Z,46.36
2019-03-21T12:20:26.327Z,46.29
2019-03-21T12:22:54.805Z,46.08
2019-03-21T12:25:23.424Z,46.59
2019-03-21T12:27:51.983Z,46.14
2019-03-21T12:30:29.338Z,46.01
2019-03-21T12:32:57.877Z,46.62
2019-03-21T12:35:26.513Z,47.04
2019-03-21T12:37:57.234Z,47.91
2019-03-21T12:40:25.868Z,47.95
2019-03-21T12:42:54.418Z,48.78
2019-03-21T12:45:23.020Z,49.22
2019-03-21T12:47:51.644Z,49.57
2019-03-21T12:50:20.267Z,49.94
2019-03-21T12:52:48.873Z,50.18
2019-03-21T12:55:17.490Z,50.51
2019-03-21T12:57:46.167Z,50.40
2019-03-21T13:00:15.824Z,50.52
2019-03-21T13:02:44.370Z,51.05
2019-03-21T13:05:18.515Z,51.22
2019-03-21T13:07:47.119Z,51.03
2019-03-21T13:10:15.697Z,50.63
2019-03-21T13:12:44.261Z,50.77
2019-03-21T13:15:13.180Z,51.45
2019-03-21T13:17:41.713Z,51.31
2019-03-21T13:20:10.446Z,52.17
2019-03-21T13:22:38.919Z,51.68
2019-03-21T13:25:07.772Z,52.29
2019-03-21T13:27:36.329Z,52.46
2019-03-21T13:30:07.254Z,52.97
2019-03-21T13:32:35.910Z,53.17
2019-03-21T13:35:06.548Z,53.74
2019-03-21T13:37:35.183Z,53.76
2019-03-21T13:40:05.430Z,54.33
2019-03-21T13:42:34.040Z,54.46
2019-03-21T13:45:02.617Z,54.25
2019-03-21T13:47:31.220Z,54.32
2019-03-21T13:49:59.690Z,54.49
2019-03-21T13:52:28.303Z,54.41
2019-03-21T13:54:58.335Z,55.15
2019-03-21T13:57:26.976Z,55.15
2019-03-21T13:59:55.511Z,55.80
2019-03-21T14:02:24.172Z,55.54
2019-03-21T14:04:52.776Z,55.89
2019-03-21T14:07:21.379Z,56.20
2019-03-21T14:09:49.912Z,56.06
2019-03-21T14:12:18.465Z,56.44
2019-03-21T14:14:47.038Z,56.20
2019-03-21T14:17:21.874Z,56.05
2019-03-21T14:19:46.278Z,56.15
2019-03-21T14:22:14.893Z,56.20
2019-03-21T14:24:43.608Z,56.40
2019-03-21T14:27:12.219Z,56.38
2019-03-21T14:29:40.683Z,56.22
2019-03-21T14:32:09.292Z,56.46
2019-03-21T14:34:37.894Z,56.82
2019-03-21T14:37:06.504Z,56.88
2019-03-21T14:39:35.154Z,56.84
2019-03-21T14:42:03.687Z,56.91
2019-03-21T14:44:32.350Z,56.98
2019-03-21T14:47:00.848Z,57.03
2019-03-21T14:49:29.394Z,57.14
2019-03-21T14:51:58.012Z,57.63
2019-03-21T14:54:26.474Z,57.35
2019-03-21T14:56:55.087Z,57.47
2019-03-21T14:59:23.628Z,57.45
2019-03-21T15:01:52.173Z,57.81
2019-03-21T15:04:20.735Z,57.84
2019-03-21T15:06:49.336Z,57.86
2019-03-21T15:09:17.848Z,58.33
2019-03-21T15:11:46.487Z,58.44
2019-03-21T15:14:15.107Z,58.58
2019-03-21T15:16:43.627Z,59.15
2019-03-21T15:19:12.193Z,58.71
2019-03-21T15:21:40.783Z,58.81
2019-03-21T15:24:09.387Z,58.95
2019-03-21T15:26:37.924Z,59.25
2019-03-21T15:29:06.458Z,59.46
2019-03-21T15:31:35.102Z,59.61
2019-03-21T15:34:03.738Z,59.64
2019-03-21T15:36:32.340Z,59.88
2019-03-21T15:39:00.976Z,59.88
2019-03-21T15:41:29.575Z,60.01
2019-03-21T15:43:58.186Z,60.27
2019-03-21T15:46:26.734Z,60.38
2019-03-21T15:48:58.387Z,60.72
2019-03-21T15:51:26.961Z,60.81
2019-03-21T15:53:56.750Z,61.12
2019-03-21T15:56:25.572Z,61.11
2019-03-21T15:58:54.106Z,61.23
2019-03-21T16:01:22.678Z,61.06
2019-03-21T16:03:51.290Z,61.04
2019-03-21T16:06:19.839Z,61.25
2019-03-21T16:08:48.370Z,61.31
2019-03-21T16:11:16.873Z,61.41
2019-03-21T16:13:48.112Z,61.64
2019-03-21T16:16:16.572Z,61.57
2019-03-21T16:18:45.177Z,61.89
2019-03-21T16:21:13.791Z,62.02
2019-03-21T16:23:42.328Z,62.03
2019-03-21T16:26:10.949Z,62.38
2019-03-21T16:28:39.491Z,62.44
2019-03-21T16:31:08.023Z,62.62
2019-03-21T16:33:36.494Z,62.63
2019-03-21T16:36:05.271Z,62.81
2019-03-21T16:38:33.818Z,62.86
2019-03-21T16:41:02.347Z,63.20
2019-03-21T16:43:30.956Z,63.10
2019-03-21T16:45:59.498Z,63.37
2019-03-21T16:48:28.094Z,63.40
2019-03-21T16:50:56.761Z,63.56
2019-03-21T16:53:26.961Z,63.58
2019-03-21T16:55:55.543Z,63.86
2019-03-21T16:58:24.138Z,63.97
2019-03-21T17:00:52.657Z,64.09
2019-03-21T17:03:21.197Z,64.40
2019-03-21T17:05:49.796Z,64.56
2019-03-21T17:08:18.300Z,64.56
2019-03-21T17:10:48.573Z,64.76
2019-03-21T17:13:18.245Z,64.74
2019-03-21T17:15:47.040Z,64.99
2019-03-21T17:18:15.580Z,65.05
2019-03-21T17:20:44.258Z,65.10
2019-03-21T17:23:12.910Z,65.65
2019-03-21T17:25:41.521Z,65.93
2019-03-21T17:28:10.126Z,65.71
2019-03-21T17:30:38.695Z,65.73
2019-03-21T17:33:07.330Z,65.91
2019-03-21T17:35:35.872Z,65.99
2019-03-21T17:38:05.542Z,66.03
2019-03-21T17:40:34.028Z,66.28
2019-03-21T17:43:02.671Z,66.64
2019-03-21T17:45:31.220Z,66.82
2019-03-21T17:47:59.743Z,67.12
2019-03-21T17:50:28.357Z,67.26
2019-03-21T17:52:56.926Z,67.45
2019-03-21T17:55:25.557Z,67.73
2019-03-21T17:57:54.094Z,67.50
2019-03-21T18:00:28.273Z,67.42
2019-03-21T18:02:56.830Z,67.54
2019-03-21T18:05:25.952Z,67.70
2019-03-21T18:07:54.497Z,67.85
2019-03-21T18:10:33.880Z,67.96
2019-03-21T18:13:02.542Z,68.09
2019-03-21T18:15:31.164Z,68.50
2019-03-21T18:18:00.120Z,68.62
2019-03-21T18:20:28.723Z,68.48
2019-03-21T18:22:57.369Z,68.30
2019-03-21T18:25:25.972Z,68.33
2019-03-21T18:27:54.534Z,68.38
2019-03-21T18:30:27.260Z,68.44
2019-03-21T18:32:55.943Z,68.75
2019-03-21T18:35:24.556Z,68.72
2019-03-21T18:37:56.313Z,68.79
2019-03-21T18:40:27.684Z,69.00
2019-03-21T18:42:57.265Z,69.08
2019-03-21T18:45:25.670Z,69.18
2019-03-21T18:47:54.275Z,69.28
2019-03-21T18:50:22.926Z,69.37
2019-03-21T18:52:51.534Z,69.58
2019-03-21T18:55:20.148Z,69.65
2019-03-21T18:57:48.805Z,69.61
2019-03-21T19:00:19.514Z,69.65
2019-03-21T19:02:48.136Z,70.01
2019-03-21T19:05:16.743Z,69.71
2019-03-21T19:07:45.351Z,69.90
2019-03-21T19:10:15.164Z,69.97
2019-03-21T19:12:43.868Z,70.10
2019-03-21T19:15:16.823Z,70.33
2019-03-21T19:17:45.831Z,70.41
2019-03-21T19:20:18.522Z,70.41
2019-03-21T19:22:47.944Z,70.23
2019-03-21T19:25:19.654Z,70.12
2019-03-21T19:27:48.114Z,70.21
2019-03-21T19:30:21.567Z,70.25
2019-03-21T19:32:50.181Z,70.43
2019-03-21T19:35:18.849Z,70.29
2019-03-21T19:37:47.552Z,70.44
2019-03-21T19:40:20.296Z,70.38
2019-03-21T19:42:48.884Z,70.31
2019-03-21T19:45:19.487Z,70.64
2019-03-21T19:47:48.091Z,70.97
2019-03-21T19:50:20.528Z,71.01
2019-03-21T19:52:49.131Z,70.75
2019-03-21T19:55:30.168Z,70.67
2019-03-21T19:57:49.565Z,71.36
2019-03-21T20:00:22.353Z,70.58
2019-03-21T20:02:51.594Z,70.51
2019-03-21T20:05:20.240Z,70.08
2019-03-21T20:07:48.849Z,69.97
2019-03-21T20:10:31.263Z,69.63
2019-03-21T20:12:57.468Z,69.37
2019-03-21T20:15:25.995Z,69.20
2019-03-21T20:17:54.583Z,69.00
2019-03-21T20:20:23.119Z,69.31
2019-03-21T20:22:51.765Z,69.32
2019-03-21T20:25:20.387Z,69.06
2019-03-21T20:27:49.060Z,68.89
2019-03-21T20:30:19.795Z,68.79
2019-03-21T20:32:48.412Z,68.75
2019-03-21T20:35:17.098Z,68.71
2019-03-21T20:37:46.091Z,68.67
2019-03-21T20:40:17.175Z,68.75
2019-03-21T20:42:45.709Z,68.88
2019-03-21T20:45:16.123Z,69.02
2019-03-21T20:47:44.753Z,69.25
2019-03-21T20:50:13.980Z,69.28
2019-03-21T20:52:42.600Z,69.20
2019-03-21T20:55:11.636Z,69.30
2019-03-21T20:57:40.192Z,69.64
2019-03-21T21:00:14.525Z,69.83
2019-03-21T21:02:43.130Z,69.77
2019-03-21T21:05:11.896Z,69.85
2019-03-21T21:07:40.417Z,69.90
2019-03-21T21:10:10.921Z,70.14
2019-03-21T21:12:39.455Z,70.14
2019-03-21T21:15:10.530Z,70.23
2019-03-21T21:17:39.106Z,70.26
2019-03-21T21:20:10.344Z,70.53
2019-03-21T21:22:38.911Z,70.87
2019-03-21T21:25:09.048Z,70.86
2019-03-21T21:27:48.799Z,71.03
2019-03-21T21:30:11.551Z,71.41
2019-03-21T21:32:40.090Z,71.26
2019-03-21T21:35:09.594Z,71.37
2019-03-21T21:37:38.604Z,71.74
2019-03-21T21:40:08.738Z,71.82
2019-03-21T21:42:37.301Z,71.79
2019-03-21T21:45:08.921Z,72.03
2019-03-21T21:47:37.637Z,72.06
2019-03-21T21:50:08.646Z,72.10
2019-03-21T21:52:41.987Z,72.07
2019-03-21T21:55:08.393Z,72.34
2019-03-21T21:57:37.064Z,72.47
2019-03-21T22:00:08.883Z,72.48
2019-03-21T22:02:37.537Z,72.43
2019-03-21T22:05:07.078Z,72.77
2019-03-21T22:07:35.695Z,72.91
2019-03-21T22:10:06.707Z,72.97
2019-03-21T22:12:35.515Z,73.04
2019-03-21T22:15:06.278Z,73.06
2019-03-21T22:17:34.824Z,73.17
2019-03-21T22:20:03.828Z,73.15
2019-03-21T22:22:32.398Z,73.43
2019-03-21T22:25:01.014Z,73.35
2019-03-21T22:27:29.540Z,73.31
2019-03-21T22:29:58.113Z,73.53
2019-03-21T22:32:34.464Z,73.57
2019-03-21T22:35:03.129Z,73.58
2019-03-21T22:37:31.595Z,73.50
2019-03-21T22:40:00.415Z,73.58
2019-03-21T22:42:29.047Z,73.71
2019-03-21T22:44:57.512Z,73.81
2019-03-21T22:47:26.009Z,74.06
2019-03-21T22:49:55.984Z,74.03
2019-03-21T22:52:24.521Z,74.09
2019-03-21T22:54:53.093Z,74.10
2019-03-21T22:57:21.563Z,73.80
2019-03-21T22:59:50.025Z,74.16
2019-03-21T23:02:18.567Z,74.35
2019-03-21T23:04:47.175Z,74.45
2019-03-21T23:07:15.714Z,74.47
2019-03-21T23:09:44.181Z,74.47
2019-03-21T23:12:12.733Z,74.56
2019-03-21T23:14:41.332Z,74.45
2019-03-21T23:17:09.975Z,74.30
2019-03-21T23:19:38.514Z,74.30
2019-03-21T23:22:07.137Z,74.42
2019-03-21T23:24:35.677Z,74.47
2019-03-21T23:27:04.455Z,74.68
2019-03-21T23:29:32.928Z,74.63
2019-03-21T23:32:01.465Z,74.58
2019-03-21T23:34:30.007Z,74.50
2019-03-21T23:36:58.674Z,74.54
2019-03-21T23:39:27.317Z,74.92
2019-03-21T23:41:55.886Z,74.87
2019-03-21T23:44:24.437Z,74.90
2019-03-21T23:46:52.943Z,74.97
2019-03-21T23:49:21.577Z,75.08
2019-03-21T23:51:50.191Z,75.11
2019-03-21T23:54:18.830Z,75.03
2019-03-21T23:56:47.375Z,75.11
2019-03-21T23:59:15.920Z,75.28
